sensor_id;sensor_type;location;lat;lon;timestamp;pressure;altitude;pressure_sealevel;temperature;humidity
85649;BME280;76075;52.476;13.124;2024-03-02T00:00:00;100103.53;;;19.97;47.33
85649;BME280;76075;52.476;13.124;2024-03-02T00:01:04;100096.16;;;19.92;47.56
85649;BME280;76075;52.476;13.124;2024-03-02T00:02:06;100104.88;;;19.94;47.39
85649;BME280;76075;52.476;13.124;2024-03-02T00:03:07;100105.53;;;19.93;47.47
85649;BME280;76075;52.476;13.124;2024-03-02T00:04:10;100099.03;;;19.92;47.59
85649;BME280;76075;52.476;13.124;2024-03-02T00:05:13;100099.03;;;19.92;47.56
85649;BME280;76075;52.476;13.124;2024-03-02T00:06:15;100102.53;;;19.88;47.54
85649;BME280;76075;52.476;13.124;2024-03-02T00:07:20;100098.78;;;19.84;47.75
85649;BME280;76075;52.476;13.124;2024-03-02T00:08:22;100101.72;;;19.86;47.71
85649;BME280;76075;52.476;13.124;2024-03-02T00:09:25;100096.09;;;19.90;47.69
85649;BME280;76075;52.476;13.124;2024-03-02T00:10:27;100095.38;;;19.90;47.53
85649;BME280;76075;52.476;13.124;2024-03-02T00:11:34;100090.56;;;19.96;47.60
85649;BME280;76075;52.476;13.124;2024-03-02T00:12:36;100094.78;;;19.93;47.59
85649;BME280;76075;52.476;13.124;2024-03-02T00:13:38;100091.03;;;19.88;47.61
85649;BME280;76075;52.476;13.124;2024-03-02T00:14:40;100094.47;;;19.85;47.61
85649;BME280;76075;52.476;13.124;2024-03-02T00:15:51;100094.47;;;19.85;47.61
85649;BME280;76075;52.476;13.124;2024-03-02T00:16:54;100086.09;;;19.91;47.54
85649;BME280;76075;52.476;13.124;2024-03-02T00:17:56;100097.06;;;19.97;47.28
85649;BME280;76075;52.476;13.124;2024-03-02T00:19:03;100096.31;;;19.96;47.27
85649;BME280;76075;52.476;13.124;2024-03-02T00:20:07;100096.41;;;19.98;47.33
85649;BME280;76075;52.476;13.124;2024-03-02T00:21:10;100095.59;;;19.96;47.38
85649;BME280;76075;52.476;13.124;2024-03-02T00:22:12;100107.00;;;19.94;47.29
85649;BME280;76075;52.476;13.124;2024-03-02T00:23:16;100091.84;;;19.91;47.58
85649;BME280;76075;52.476;13.124;2024-03-02T00:24:20;100093.81;;;19.86;47.62
85649;BME280;76075;52.476;13.124;2024-03-02T00:25:22;100093.91;;;19.88;47.50
85649;BME280;76075;52.476;13.124;2024-03-02T00:26:23;100087.41;;;19.88;47.46
85649;BME280;76075;52.476;13.124;2024-03-02T00:27:25;100094.56;;;19.87;47.46
85649;BME280;76075;52.476;13.124;2024-03-02T00:28:36;100094.47;;;19.85;47.68
85649;BME280;76075;52.476;13.124;2024-03-02T00:29:37;100092.25;;;19.83;47.67
85649;BME280;76075;52.476;13.124;2024-03-02T00:30:58;100092.88;;;19.80;47.77
85649;BME280;76075;52.476;13.124;2024-03-02T00:31:59;100088.59;;;19.81;47.72
85649;BME280;76075;52.476;13.124;2024-03-02T00:33:02;100093.75;;;19.84;47.64
85649;BME280;76075;52.476;13.124;2024-03-02T00:34:03;100088.00;;;19.84;47.56
85649;BME280;76075;52.476;13.124;2024-03-02T00:35:06;100088.59;;;19.81;47.62
85649;BME280;76075;52.476;13.124;2024-03-02T00:36:07;100082.69;;;19.77;47.67
85649;BME280;76075;52.476;13.124;2024-03-02T00:37:09;100085.50;;;19.75;47.89
85649;BME280;76075;52.476;13.124;2024-03-02T00:38:13;100088.44;;;19.77;47.77
85649;BME280;76075;52.476;13.124;2024-03-02T00:39:16;100087.13;;;19.80;47.78
85649;BME280;76075;52.476;13.124;2024-03-02T00:40:19;100089.47;;;19.85;47.60
85649;BME280;76075;52.476;13.124;2024-03-02T00:41:30;100089.25;;;19.79;47.62
85649;BME280;76075;52.476;13.124;2024-03-02T00:42:32;100087.13;;;19.80;47.60
85649;BME280;76075;52.476;13.124;2024-03-02T00:43:38;100083.44;;;19.77;47.74
85649;BME280;76075;52.476;13.124;2024-03-02T00:44:45;100081.22;;;19.76;47.80
85649;BME280;76075;52.476;13.124;2024-03-02T00:45:49;100079.22;;;19.80;47.68
85649;BME280;76075;52.476;13.124;2024-03-02T00:46:50;100079.31;;;19.82;47.59
85649;BME280;76075;52.476;13.124;2024-03-02T00:47:51;100091.53;;;19.83;47.54
85649;BME280;76075;52.476;13.124;2024-03-02T00:48:54;100079.09;;;19.76;47.74
85649;BME280;76075;52.476;13.124;2024-03-02T00:49:56;100078.28;;;19.74;47.67
85649;BME280;76075;52.476;13.124;2024-03-02T00:50:58;100086.81;;;19.72;47.88
85649;BME280;76075;52.476;13.124;2024-03-02T00:51:59;100084.66;;;19.72;47.85
85649;BME280;76075;52.476;13.124;2024-03-02T00:53:01;100083.44;;;19.77;47.77
85649;BME280;76075;52.476;13.124;2024-03-02T00:54:07;100079.31;;;19.82;47.57
85649;BME280;76075;52.476;13.124;2024-03-02T00:55:10;100078.44;;;19.78;47.71
85649;BME280;76075;52.476;13.124;2024-03-02T00:56:11;100076.13;;;19.74;47.71
85649;BME280;76075;52.476;13.124;2024-03-02T00:57:13;100076.00;;;19.70;47.83
85649;BME280;76075;52.476;13.124;2024-03-02T00:58:15;100075.47;;;19.76;47.67
85649;BME280;76075;52.476;13.124;2024-03-02T00:59:16;100078.34;;;19.76;47.59
85649;BME280;76075;52.476;13.124;2024-03-02T01:00:18;100076.88;;;19.75;47.82
85649;BME280;76075;52.476;13.124;2024-03-02T01:01:19;100079.16;;;19.78;47.74
85649;BME280;76075;52.476;13.124;2024-03-02T01:02:21;100075.47;;;19.76;47.75
85649;BME280;76075;52.476;13.124;2024-03-02T01:03:22;100081.22;;;19.76;47.75
85649;BME280;76075;52.476;13.124;2024-03-02T01:04:23;100082.56;;;19.73;47.80
85649;BME280;76075;52.476;13.124;2024-03-02T01:05:25;100079.69;;;19.73;47.82
85649;BME280;76075;52.476;13.124;2024-03-02T01:06:26;100079.59;;;19.71;47.89
85649;BME280;76075;52.476;13.124;2024-03-02T01:07:27;100084.09;;;19.76;47.74
85649;BME280;76075;52.476;13.124;2024-03-02T01:08:29;100081.38;;;19.80;47.50
85649;BME280;76075;52.476;13.124;2024-03-02T01:09:30;100084.31;;;19.82;47.52
85649;BME280;76075;52.476;13.124;2024-03-02T01:10:32;100080.03;;;19.83;47.41
85649;BME280;76075;52.476;13.124;2024-03-02T01:11:33;100084.91;;;19.78;47.52
85649;BME280;76075;52.476;13.124;2024-03-02T01:12:35;100076.94;;;19.77;47.67
85649;BME280;76075;52.476;13.124;2024-03-02T01:13:36;100076.28;;;19.78;47.69
85649;BME280;76075;52.476;13.124;2024-03-02T01:14:37;100076.22;;;19.76;47.67
85649;BME280;76075;52.476;13.124;2024-03-02T01:15:39;100070.38;;;19.74;47.56
85649;BME280;76075;52.476;13.124;2024-03-02T01:16:40;100070.47;;;19.76;47.67
85649;BME280;76075;52.476;13.124;2024-03-02T01:17:42;100063.25;;;19.75;47.80
85649;BME280;76075;52.476;13.124;2024-03-02T01:18:43;100064.56;;;19.72;47.74
85649;BME280;76075;52.476;13.124;2024-03-02T01:19:44;100068.94;;;19.73;47.63
85649;BME280;76075;52.476;13.124;2024-03-02T01:20:46;100067.28;;;19.68;47.71
85649;BME280;76075;52.476;13.124;2024-03-02T01:21:47;100073.13;;;19.70;47.80
85649;BME280;76075;52.476;13.124;2024-03-02T01:22:49;100069.50;;;19.70;47.77
85649;BME280;76075;52.476;13.124;2024-03-02T01:23:50;100069.34;;;19.65;47.77
85649;BME280;76075;52.476;13.124;2024-03-02T01:24:51;100070.09;;;19.66;47.76
85649;BME280;76075;52.476;13.124;2024-03-02T01:25:53;100072.16;;;19.63;47.86
85649;BME280;76075;52.476;13.124;2024-03-02T01:26:54;100069.41;;;19.67;47.76
85649;BME280;76075;52.476;13.124;2024-03-02T01:27:56;100069.50;;;19.70;47.67
85649;BME280;76075;52.476;13.124;2024-03-02T01:28:57;100080.88;;;19.67;47.71
85649;BME280;76075;52.476;13.124;2024-03-02T01:29:59;100064.25;;;19.64;47.93
85649;BME280;76075;52.476;13.124;2024-03-02T01:31:01;100062.13;;;19.64;47.79
85649;BME280;76075;52.476;13.124;2024-03-02T01:32:03;100065.06;;;19.66;47.83
85649;BME280;76075;52.476;13.124;2024-03-02T01:33:05;100057.78;;;19.63;47.92
85649;BME280;76075;52.476;13.124;2024-03-02T01:34:06;100062.94;;;19.67;47.79
85649;BME280;76075;52.476;13.124;2024-03-02T01:35:08;100047.69;;;19.62;47.88
85649;BME280;76075;52.476;13.124;2024-03-02T01:36:10;100055.00;;;19.65;47.72
85649;BME280;76075;52.476;13.124;2024-03-02T01:37:11;100047.75;;;19.64;47.85
85649;BME280;76075;52.476;13.124;2024-03-02T01:38:12;100057.84;;;19.65;47.82
85649;BME280;76075;52.476;13.124;2024-03-02T01:39:14;100053.56;;;19.66;47.67
85649;BME280;76075;52.476;13.124;2024-03-02T01:40:15;100048.47;;;19.65;47.84
85649;BME280;76075;52.476;13.124;2024-03-02T01:41:17;100044.97;;;19.66;47.63
85649;BME280;76075;52.476;13.124;2024-03-02T01:42:18;100052.03;;;19.63;47.88
85649;BME280;76075;52.476;13.124;2024-03-02T01:43:19;100044.81;;;19.62;47.92
85649;BME280;76075;52.476;13.124;2024-03-02T01:44:21;100041.84;;;19.60;47.86
85649;BME280;76075;52.476;13.124;2024-03-02T01:45:22;100044.97;;;19.66;47.62
85649;BME280;76075;52.476;13.124;2024-03-02T01:46:23;100042.81;;;19.67;47.63
85649;BME280;76075;52.476;13.124;2024-03-02T01:47:25;100037.75;;;19.65;47.79
85649;BME280;76075;52.476;13.124;2024-03-02T01:48:26;100043.50;;;19.65;47.71
85649;BME280;76075;52.476;13.124;2024-03-02T01:49:28;100040.56;;;19.63;47.86
85649;BME280;76075;52.476;13.124;2024-03-02T01:50:32;100039.88;;;19.65;47.73
85649;BME280;76075;52.476;13.124;2024-03-02T01:51:34;100039.13;;;19.64;47.84
85649;BME280;76075;52.476;13.124;2024-03-02T01:52:36;100041.94;;;19.62;47.78
85649;BME280;76075;52.476;13.124;2024-03-02T01:53:37;100041.19;;;19.62;47.75
85649;BME280;76075;52.476;13.124;2024-03-02T01:54:38;100036.13;;;19.60;47.87
85649;BME280;76075;52.476;13.124;2024-03-02T01:55:40;100032.59;;;19.62;47.84
85649;BME280;76075;52.476;13.124;2024-03-02T01:56:41;100039.06;;;19.62;47.68
85649;BME280;76075;52.476;13.124;2024-03-02T01:57:42;100038.34;;;19.62;47.85
85649;BME280;76075;52.476;13.124;2024-03-02T01:58:46;100041.84;;;19.60;47.85
85649;BME280;76075;52.476;13.124;2024-03-02T01:59:47;100028.91;;;19.59;47.81
85649;BME280;76075;52.476;13.124;2024-03-02T02:00:49;100033.31;;;19.62;47.66
85649;BME280;76075;52.476;13.124;2024-03-02T02:01:51;100030.53;;;19.64;47.83
85649;BME280;76075;52.476;13.124;2024-03-02T02:02:53;100024.19;;;19.68;47.57
85649;BME280;76075;52.476;13.124;2024-03-02T02:03:54;100030.53;;;19.64;47.67
85649;BME280;76075;52.476;13.124;2024-03-02T02:04:56;100026.91;;;19.64;47.67
85649;BME280;76075;52.476;13.124;2024-03-02T02:05:58;100021.84;;;19.62;47.65
85649;BME280;76075;52.476;13.124;2024-03-02T02:06:59;100021.84;;;19.62;47.73
85649;BME280;76075;52.476;13.124;2024-03-02T02:08:01;100034.81;;;19.63;47.58
85649;BME280;76075;52.476;13.124;2024-03-02T02:09:02;100024.69;;;19.62;47.73
85649;BME280;76075;52.476;13.124;2024-03-02T02:10:04;100027.56;;;19.62;47.54
85649;BME280;76075;52.476;13.124;2024-03-02T02:11:06;100020.22;;;19.57;47.76
85649;BME280;76075;52.476;13.124;2024-03-02T02:12:07;100025.97;;;19.57;47.71
85649;BME280;76075;52.476;13.124;2024-03-02T02:13:08;100023.09;;;19.57;47.87
85649;BME280;76075;52.476;13.124;2024-03-02T02:14:10;100010.94;;;19.59;47.68
85649;BME280;76075;52.476;13.124;2024-03-02T02:15:28;100003.00;;;19.57;47.79
85649;BME280;76075;52.476;13.124;2024-03-02T02:16:30;100015.81;;;19.54;47.86
85649;BME280;76075;52.476;13.124;2024-03-02T02:17:31;100012.94;;;19.54;47.92
85649;BME280;76075;52.476;13.124;2024-03-02T02:18:33;100016.69;;;19.59;47.76
85649;BME280;76075;52.476;13.124;2024-03-02T02:19:34;100016.69;;;19.59;47.83
85649;BME280;76075;52.476;13.124;2024-03-02T02:20:35;100002.25;;;19.57;47.75
85649;BME280;76075;52.476;13.124;2024-03-02T02:21:37;100008.81;;;19.59;47.77
85649;BME280;76075;52.476;13.124;2024-03-02T02:22:38;100008.72;;;19.57;47.74
85649;BME280;76075;52.476;13.124;2024-03-02T02:23:39;100008.00;;;19.57;47.74
85649;BME280;76075;52.476;13.124;2024-03-02T02:24:41;100003.00;;;19.57;47.75
85649;BME280;76075;52.476;13.124;2024-03-02T02:25:43;100008.59;;;19.53;47.79
85649;BME280;76075;52.476;13.124;2024-03-02T02:26:44;100009.31;;;19.54;47.74
85649;BME280;76075;52.476;13.124;2024-03-02T02:27:46;100003.00;;;19.57;47.71
85649;BME280;76075;52.476;13.124;2024-03-02T02:28:47;100003.56;;;19.54;47.85
85649;BME280;76075;52.476;13.124;2024-03-02T02:29:48;100000.03;;;19.55;47.72
85649;BME280;76075;52.476;13.124;2024-03-02T02:30:50;100005.13;;;19.57;47.70
85649;BME280;76075;52.476;13.124;2024-03-02T02:31:51;99999.31;;;19.55;47.66
85649;BME280;76075;52.476;13.124;2024-03-02T02:32:53;100003.00;;;19.57;47.64
85649;BME280;76075;52.476;13.124;2024-03-02T02:33:54;100004.41;;;19.56;47.78
85649;BME280;76075;52.476;13.124;2024-03-02T02:34:56;100009.31;;;19.54;47.66
85649;BME280;76075;52.476;13.124;2024-03-02T02:35:57;100007.13;;;19.52;47.79
85649;BME280;76075;52.476;13.124;2024-03-02T02:36:59;100011.38;;;19.51;47.91
85649;BME280;76075;52.476;13.124;2024-03-02T02:38:00;100008.59;;;19.53;47.90
85649;BME280;76075;52.476;13.124;2024-03-02T02:39:03;100015.81;;;19.54;47.76
85649;BME280;76075;52.476;13.124;2024-03-02T02:40:05;100005.72;;;19.53;47.77
85649;BME280;76075;52.476;13.124;2024-03-02T02:41:07;100001.44;;;19.54;47.73
85649;BME280;76075;52.476;13.124;2024-03-02T02:42:08;100011.53;;;19.55;47.72
85649;BME280;76075;52.476;13.124;2024-03-02T02:43:09;99998.59;;;19.54;47.66
85649;BME280;76075;52.476;13.124;2024-03-02T02:44:11;100012.94;;;19.54;47.71
85649;BME280;76075;52.476;13.124;2024-03-02T02:45:15;100005.63;;;19.51;47.81
85649;BME280;76075;52.476;13.124;2024-03-02T02:46:17;100006.97;;;19.48;47.86
85649;BME280;76075;52.476;13.124;2024-03-02T02:47:18;100002.69;;;19.49;47.78
85649;BME280;76075;52.476;13.124;2024-03-02T02:48:20;100009.84;;;19.48;47.85
85649;BME280;76075;52.476;13.124;2024-03-02T02:49:21;100005.63;;;19.51;47.59
85649;BME280;76075;52.476;13.124;2024-03-02T02:50:22;100006.50;;;19.56;47.74
85649;BME280;76075;52.476;13.124;2024-03-02T02:51:24;100013.66;;;19.55;47.69
85649;BME280;76075;52.476;13.124;2024-03-02T02:52:30;100011.53;;;19.55;47.61
85649;BME280;76075;52.476;13.124;2024-03-02T02:53:32;100000.03;;;19.55;47.68
85649;BME280;76075;52.476;13.124;2024-03-02T02:54:33;100002.09;;;19.53;47.67
85649;BME280;76075;52.476;13.124;2024-03-02T02:55:34;100003.56;;;19.54;47.73
85649;BME280;76075;52.476;13.124;2024-03-02T02:56:36;99999.88;;;19.51;47.71
85649;BME280;76075;52.476;13.124;2024-03-02T02:57:38;100006.97;;;19.48;47.78
85649;BME280;76075;52.476;13.124;2024-03-02T02:58:40;100009.84;;;19.48;47.79
85649;BME280;76075;52.476;13.124;2024-03-02T02:59:43;100014.13;;;19.47;47.77
85649;BME280;76075;52.476;13.124;2024-03-02T03:00:44;100012.56;;;19.44;47.83
85649;BME280;76075;52.476;13.124;2024-03-02T03:01:45;100017.56;;;19.43;48.13
85649;BME280;76075;52.476;13.124;2024-03-02T03:02:48;100016.09;;;19.42;47.85
85649;BME280;76075;52.476;13.124;2024-03-02T03:03:51;100008.38;;;19.47;47.71
85649;BME280;76075;52.476;13.124;2024-03-02T03:04:52;100009.75;;;19.46;47.83
85649;BME280;76075;52.476;13.124;2024-03-02T03:05:54;100009.84;;;19.48;47.79
85649;BME280;76075;52.476;13.124;2024-03-02T03:06:55;100005.50;;;19.47;47.83
85649;BME280;76075;52.476;13.124;2024-03-02T03:07:57;100005.50;;;19.47;47.87
85649;BME280;76075;52.476;13.124;2024-03-02T03:08:58;100006.88;;;19.46;47.85
85649;BME280;76075;52.476;13.124;2024-03-02T03:10:00;100014.03;;;19.45;47.84
85649;BME280;76075;52.476;13.124;2024-03-02T03:11:01;100011.28;;;19.49;47.69
85649;BME280;76075;52.476;13.124;2024-03-02T03:12:03;100013.38;;;19.46;47.84
85649;BME280;76075;52.476;13.124;2024-03-02T03:13:04;100009.75;;;19.46;47.80
85649;BME280;76075;52.476;13.124;2024-03-02T03:14:08;100014.03;;;19.45;47.72
85649;BME280;76075;52.476;13.124;2024-03-02T03:15:10;100006.81;;;19.44;47.78
85649;BME280;76075;52.476;13.124;2024-03-02T03:16:12;100009.03;;;19.45;47.88
85649;BME280;76075;52.476;13.124;2024-03-02T03:17:13;100004.03;;;19.46;47.87
85649;BME280;76075;52.476;13.124;2024-03-02T03:18:15;100011.25;;;19.47;47.77
85649;BME280;76075;52.476;13.124;2024-03-02T03:19:16;100007.53;;;19.44;47.71
85649;BME280;76075;52.476;13.124;2024-03-02T03:20:18;100003.94;;;19.44;47.69
85649;BME280;76075;52.476;13.124;2024-03-02T03:21:19;99999.75;;;19.47;47.80
85649;BME280;76075;52.476;13.124;2024-03-02T03:22:20;100006.88;;;19.46;47.80
85649;BME280;76075;52.476;13.124;2024-03-02T03:23:22;100007.50;;;19.42;47.84
85649;BME280;76075;52.476;13.124;2024-03-02T03:24:23;100004.63;;;19.42;47.85
85649;BME280;76075;52.476;13.124;2024-03-02T03:25:24;100011.09;;;19.43;47.88
85649;BME280;76075;52.476;13.124;2024-03-02T03:26:26;100011.09;;;19.43;47.82
85649;BME280;76075;52.476;13.124;2024-03-02T03:27:27;100008.88;;;19.41;47.89
85649;BME280;76075;52.476;13.124;2024-03-02T03:28:29;100006.66;;;19.40;47.97
85649;BME280;76075;52.476;13.124;2024-03-02T03:29:30;100011.09;;;19.43;47.95
85649;BME280;76075;52.476;13.124;2024-03-02T03:30:31;100011.81;;;19.43;47.86
85649;BME280;76075;52.476;13.124;2024-03-02T03:31:33;100012.63;;;19.46;47.72
85649;BME280;76075;52.476;13.124;2024-03-02T03:32:34;100009.69;;;19.44;47.63
85649;BME280;76075;52.476;13.124;2024-03-02T03:33:36;100009.53;;;19.40;47.86
85649;BME280;76075;52.476;13.124;2024-03-02T03:34:37;100008.78;;;19.39;47.91
85649;BME280;76075;52.476;13.124;2024-03-02T03:35:39;100012.41;;;19.40;47.94
85649;BME280;76075;52.476;13.124;2024-03-02T03:36:40;100010.94;;;19.39;47.92
85649;BME280;76075;52.476;13.124;2024-03-02T03:37:41;100008.72;;;19.37;48.00
85649;BME280;76075;52.476;13.124;2024-03-02T03:38:43;100009.47;;;19.38;47.97
85649;BME280;76075;52.476;13.124;2024-03-02T03:39:44;100010.88;;;19.37;47.99
85649;BME280;76075;52.476;13.124;2024-03-02T03:40:46;100008.00;;;19.37;47.85
85649;BME280;76075;52.476;13.124;2024-03-02T03:41:48;100010.94;;;19.39;47.93
85649;BME280;76075;52.476;13.124;2024-03-02T03:42:50;100008.72;;;19.37;47.97
85649;BME280;76075;52.476;13.124;2024-03-02T03:43:51;100015.16;;;19.36;47.99
85649;BME280;76075;52.476;13.124;2024-03-02T03:44:53;100016.53;;;19.35;48.04
85649;BME280;76075;52.476;13.124;2024-03-02T03:45:54;100012.19;;;19.34;47.99
85649;BME280;76075;52.476;13.124;2024-03-02T03:46:56;100014.31;;;19.33;48.08
85649;BME280;76075;52.476;13.124;2024-03-02T03:47:57;100020.81;;;19.34;48.06
85649;BME280;76075;52.476;13.124;2024-03-02T03:48:58;100009.31;;;19.34;48.03
85649;BME280;76075;52.476;13.124;2024-03-02T03:50:00;100013.56;;;19.33;48.08
85649;BME280;76075;52.476;13.124;2024-03-02T03:51:01;100010.72;;;19.33;48.15
85649;BME280;76075;52.476;13.124;2024-03-02T03:52:03;100013.56;;;19.33;48.17
85649;BME280;76075;52.476;13.124;2024-03-02T03:53:05;100009.31;;;19.34;48.13
85649;BME280;76075;52.476;13.124;2024-03-02T03:54:06;100012.94;;;19.34;48.09
85649;BME280;76075;52.476;13.124;2024-03-02T03:55:07;100017.25;;;19.35;48.10
85649;BME280;76075;52.476;13.124;2024-03-02T03:56:09;100018.00;;;19.36;48.02
85649;BME280;76075;52.476;13.124;2024-03-02T03:57:11;100011.50;;;19.35;48.08
85649;BME280;76075;52.476;13.124;2024-03-02T03:58:12;100013.00;;;19.36;48.02
85649;BME280;76075;52.476;13.124;2024-03-02T03:59:13;100013.72;;;19.37;48.02
85649;BME280;76075;52.476;13.124;2024-03-02T04:00:15;100015.16;;;19.36;48.01
85649;BME280;76075;52.476;13.124;2024-03-02T04:01:17;100016.69;;;19.39;48.04
85649;BME280;76075;52.476;13.124;2024-03-02T04:02:18;100013.81;;;19.39;48.05
85649;BME280;76075;52.476;13.124;2024-03-02T04:03:19;100021.78;;;19.40;47.93
85649;BME280;76075;52.476;13.124;2024-03-02T04:04:21;100024.63;;;19.40;48.03
85649;BME280;76075;52.476;13.124;2024-03-02T04:05:22;100026.09;;;19.41;47.96
85649;BME280;76075;52.476;13.124;2024-03-02T04:06:24;100025.38;;;19.41;47.93
85649;BME280;76075;52.476;13.124;2024-03-02T04:07:25;100029.63;;;19.40;47.94
85649;BME280;76075;52.476;13.124;2024-03-02T04:08:26;100031.13;;;19.41;48.01
85649;BME280;76075;52.476;13.124;2024-03-02T04:09:28;100037.59;;;19.41;48.01
85649;BME280;76075;52.476;13.124;2024-03-02T04:10:29;100032.56;;;19.42;48.12
85649;BME280;76075;52.476;13.124;2024-03-02T04:11:31;100037.59;;;19.41;48.19
85649;BME280;76075;52.476;13.124;2024-03-02T04:12:32;100036.13;;;19.40;48.27
85649;BME280;76075;52.476;13.124;2024-03-02T04:13:34;100031.13;;;19.41;48.23
85649;BME280;76075;52.476;13.124;2024-03-02T04:14:35;100036.84;;;19.41;48.27
85649;BME280;76075;52.476;13.124;2024-03-02T04:15:38;100031.13;;;19.41;48.36
85649;BME280;76075;52.476;13.124;2024-03-02T04:16:41;100031.84;;;19.41;48.23
85649;BME280;76075;52.476;13.124;2024-03-02T04:17:43;100038.31;;;19.42;48.43
85649;BME280;76075;52.476;13.124;2024-03-02T04:18:44;100029.72;;;19.42;48.34
85649;BME280;76075;52.476;13.124;2024-03-02T04:19:46;100026.84;;;19.42;48.37
85649;BME280;76075;52.476;13.124;2024-03-02T04:20:47;100033.34;;;19.42;48.16
85649;BME280;76075;52.476;13.124;2024-03-02T04:21:51;100037.66;;;19.43;48.18
85649;BME280;76075;52.476;13.124;2024-03-02T04:22:53;100037.00;;;19.45;48.17
85649;BME280;76075;52.476;13.124;2024-03-02T04:23:54;100037.75;;;19.45;48.03
85649;BME280;76075;52.476;13.124;2024-03-02T04:24:59;100034.13;;;19.45;48.12
85649;BME280;76075;52.476;13.124;2024-03-02T04:26:01;100042.06;;;19.46;48.13
85649;BME280;76075;52.476;13.124;2024-03-02T04:27:03;100035.59;;;19.46;48.12
85649;BME280;76075;52.476;13.124;2024-03-02T04:28:04;100038.47;;;19.46;48.11
85649;BME280;76075;52.476;13.124;2024-03-02T04:29:05;100045.72;;;19.47;48.12
85649;BME280;76075;52.476;13.124;2024-03-02T04:30:07;100036.34;;;19.46;48.06
85649;BME280;76075;52.476;13.124;2024-03-02T04:31:08;100042.84;;;19.47;48.14
85649;BME280;76075;52.476;13.124;2024-03-02T04:32:09;100047.16;;;19.48;48.15
85649;BME280;76075;52.476;13.124;2024-03-02T04:33:11;100041.41;;;19.48;48.12
85649;BME280;76075;52.476;13.124;2024-03-02T04:34:12;100035.69;;;19.48;48.20
85649;BME280;76075;52.476;13.124;2024-03-02T04:35:14;100050.03;;;19.48;48.20
85649;BME280;76075;52.476;13.124;2024-03-02T04:36:15;100041.41;;;19.48;47.99
85649;BME280;76075;52.476;13.124;2024-03-02T04:37:17;100045.03;;;19.49;48.30
85649;BME280;76075;52.476;13.124;2024-03-02T04:38:18;100042.88;;;19.49;48.25
85649;BME280;76075;52.476;13.124;2024-03-02T04:39:19;100048.63;;;19.49;48.21
85649;BME280;76075;52.476;13.124;2024-03-02T04:40:21;100044.28;;;19.48;48.33
85649;BME280;76075;52.476;13.124;2024-03-02T04:41:22;100045.03;;;19.49;48.24
85649;BME280;76075;52.476;13.124;2024-03-02T04:42:23;100050.03;;;19.48;48.32
85649;BME280;76075;52.476;13.124;2024-03-02T04:43:25;100050.75;;;19.49;48.34
85649;BME280;76075;52.476;13.124;2024-03-02T04:44:27;100045.03;;;19.49;48.31
85649;BME280;76075;52.476;13.124;2024-03-02T04:45:28;100042.84;;;19.47;48.39
85649;BME280;76075;52.476;13.124;2024-03-02T04:46:31;100045.72;;;19.47;48.50
85649;BME280;76075;52.476;13.124;2024-03-02T04:47:32;100047.81;;;19.46;48.48
85649;BME280;76075;52.476;13.124;2024-03-02T04:48:34;100051.44;;;19.47;48.52
85649;BME280;76075;52.476;13.124;2024-03-02T04:49:35;100055.69;;;19.46;48.53
85649;BME280;76075;52.476;13.124;2024-03-02T04:50:37;100055.69;;;19.46;48.68
85649;BME280;76075;52.476;13.124;2024-03-02T04:51:38;100051.44;;;19.47;48.73
85649;BME280;76075;52.476;13.124;2024-03-02T04:52:40;100049.22;;;19.45;48.74
85649;BME280;76075;52.476;13.124;2024-03-02T04:53:41;100052.81;;;19.46;48.70
85649;BME280;76075;52.476;13.124;2024-03-02T04:54:43;100048.56;;;19.47;48.58
85649;BME280;76075;52.476;13.124;2024-03-02T04:56:03;100057.91;;;19.48;48.63
85649;BME280;76075;52.476;13.124;2024-03-02T04:57:22;100052.19;;;19.48;48.51
85649;BME280;76075;52.476;13.124;2024-03-02T04:58:24;100056.50;;;19.49;48.50
85649;BME280;76075;52.476;13.124;2024-03-02T04:59:25;100057.25;;;19.49;48.39
85649;BME280;76075;52.476;13.124;2024-03-02T05:00:27;100058.00;;;19.50;48.41
85649;BME280;76075;52.476;13.124;2024-03-02T05:01:28;100055.13;;;19.50;48.39
85649;BME280;76075;52.476;13.124;2024-03-02T05:02:30;100059.47;;;19.51;48.40
85649;BME280;76075;52.476;13.124;2024-03-02T05:03:31;100060.19;;;19.51;48.40
85649;BME280;76075;52.476;13.124;2024-03-02T05:04:35;100068.81;;;19.51;48.39
85649;BME280;76075;52.476;13.124;2024-03-02T05:05:36;100064.47;;;19.50;48.36
85649;BME280;76075;52.476;13.124;2024-03-02T05:06:39;100063.81;;;19.52;48.53
85649;BME280;76075;52.476;13.124;2024-03-02T05:07:44;100063.81;;;19.52;48.54
85649;BME280;76075;52.476;13.124;2024-03-02T05:08:45;100057.31;;;19.51;48.51
85649;BME280;76075;52.476;13.124;2024-03-02T05:09:47;100070.28;;;19.52;48.49
85649;BME280;76075;52.476;13.124;2024-03-02T05:10:49;100066.69;;;19.52;48.50
85649;BME280;76075;52.476;13.124;2024-03-02T05:11:51;100065.94;;;19.51;48.42
85649;BME280;76075;52.476;13.124;2024-03-02T05:13:11;100074.53;;;19.51;48.52
85649;BME280;76075;52.476;13.124;2024-03-02T05:14:13;100068.81;;;19.51;48.51
85649;BME280;76075;52.476;13.124;2024-03-02T05:15:14;100073.09;;;19.50;48.54
85649;BME280;76075;52.476;13.124;2024-03-02T05:16:16;100067.34;;;19.50;48.53
85649;BME280;76075;52.476;13.124;2024-03-02T05:17:17;100068.06;;;19.51;48.51
85649;BME280;76075;52.476;13.124;2024-03-02T05:18:19;100068.06;;;19.51;48.64
85649;BME280;76075;52.476;13.124;2024-03-02T05:19:20;100067.34;;;19.50;48.74
85649;BME280;76075;52.476;13.124;2024-03-02T05:20:21;100078.09;;;19.50;48.76